EST,Max TemperatureF,Mean TemperatureF,Min TemperatureF,Max Dew PointF,MeanDew PointF,Min DewpointF,Max Humidity, Mean Humidity, Min Humidity, Max Sea Level PressureIn, Mean Sea Level PressureIn, Min Sea Level PressureIn, Max VisibilityMiles, Mean VisibilityMiles, Min VisibilityMiles, Max Wind SpeedMPH, Mean Wind SpeedMPH, Max Gust SpeedMPH,PrecipitationIn, CloudCover, Events, WindDirDegrees
2012-12-1,,,,,,,,,,,,,,,,,,,,,,
2012-12-2,,,,,,,,,,,,,,,,,,,,,,
2012-12-3,,,,,,,,,,,,,,,,,,,,,,
2012-12-4,,,,,,,,,,,,,,,,,,,,,,
2012-12-5,60,51,42,57,46,37,100,76,48,30.28,30.20,30.14,10,9,0,12,4,,0.00,6,,10
2012-12-6,66,54,41,50,45,36,87,64,52,30.14,30.08,30.03,10,9,2,16,7,,0.00,6,,142
2012-12-7,64,58,51,54,50,45,88,77,64,30.06,30.00,29.94,10,10,10,15,9,,0.00,7,,157
2012-12-8,69,61,53,57,54,52,94,80,56,30.01,29.98,29.94,10,10,10,10,5,,0.00,4,,176
2012-12-9,71,64,57,57,56,54,94,75,57,30.02,29.97,29.86,10,10,10,16,8,,0.00,6,,172
2012-12-10,64,48,33,61,48,28,100,91,68,29.99,29.81,29.70,10,7,2,15,8,,0.00,8,,249
2012-12-11,37,32,28,30,27,25,100,82,65,30.22,30.11,29.98,10,10,10,13,7,,0.00,5,,12
2012-12-12,46,35,24,27,25,21,100,72,37,30.30,30.26,30.22,10,10,8,10,2,,0.00,0,,7
2012-12-13,53,36,19,30,25,19,100,76,28,30.39,30.33,30.28,10,10,10,5,1,,0.00,0,,290
2012-12-14,57,40,24,39,32,21,100,73,44,30.36,30.28,30.14,10,10,10,9,2,,0.00,0,,125
2012-12-15,60,54,48,52,43,34,94,69,52,30.17,30.07,29.97,10,10,2,16,9,24,0.00,5,,165
2012-12-16,60,58,55,57,54,52,100,91,82,29.97,29.88,29.79,10,8,1,18,9,,0.00,6,,165
2012-12-17,60,56,51,55,53,48,100,89,72,29.82,29.74,29.64,10,9,2,12,7,,0.00,6,,190
2012-12-18,55,48,42,37,34,28,71,57,36,29.98,29.95,29.92,10,10,10,9,3,,0.00,0,,194
2012-12-19,64,52,39,48,42,34,93,73,55,30.08,30.01,29.95,10,10,10,14,4,,0.00,1,,139
2012-12-20,57,47,35,54,38,21,100,70,51,29.96,29.78,29.61,10,9,1,26,14,37,0.00,7,,213
2012-12-21,41,34,28,21,18,16,69,52,36,30.25,30.10,29.94,10,10,10,20,13,25,0.00,2,,288
2012-12-22,46,32,19,23,17,12,86,57,27,30.35,30.26,30.18,10,10,10,8,3,,0.00,0,,282
2012-12-23,53,40,26,43,32,19,100,71,35,30.17,30.08,29.97,10,9,2,14,3,,0.00,5,,164
2012-12-24,57,48,37,55,47,37,100,96,77,29.97,29.88,29.82,10,7,0,13,6,,0.00,7,,185
2012-12-25,50,42,35,46,44,36,100,96,87,30.02,29.90,29.53,10,4,0,33,4,40,0.00,7,,72
2012-12-26,51,40,30,50,35,28,100,91,81,30.06,29.70,29.39,10,8,2,33,17,45,0.00,8,,264
2012-12-27,33,30,28,28,27,27,100,84,75,30.17,30.11,30.06,10,10,9,12,6,,0.00,8,,354
2012-12-28,42,34,26,37,32,27,100,86,75,30.11,29.96,29.73,10,10,5,22,5,,0.00,6,,132
2012-12-29,42,36,30,39,31,21,100,89,69,30.32,30.03,29.79,10,8,2,14,9,,0.00,8,,299
2012-12-30,37,30,23,27,22,18,93,75,56,30.52,30.42,30.32,10,10,10,14,7,,0.00,3,,359
2012-12-31,46,34,23,37,28,21,100,69,43,30.36,30.25,30.05,10,10,10,10,4,,0.00,4,,147